Time;durP1;ratioP1;P1;durP2;ratioP2;P2;SDS_P1;SDS_P2;PMS_P1;PMS_P2;Temp;Humidity;BMP_temperature;BMP_pressure;BME280_temperature;BME280_humidity;BME280_pressure;Samples;Min_cycle;Max_cycle;Signal;HPM_P1;HPM_P2
2024/03/23 00:00:56;;;;;;;17.73;3.17;;;;;;;8.34;100.00;100661.63;6249982;28;20176;-86
2024/03/23 00:04:00;;;;;;;11.70;2.92;;;;;;;8.37;100.00;100656.31;6250213;28;20065;-86
2024/03/23 00:07:05;;;;;;;17.23;4.05;;;;;;;8.34;100.00;100650.31;6230189;28;20127;-86
2024/03/23 00:10:10;;;;;;;17.52;3.17;;;;;;;8.28;100.00;100635.75;6225227;28;20053;-85
2024/03/23 00:13:14;;;;;;;15.20;3.90;;;;;;;8.30;100.00;100630.44;6231164;28;20076;-86
2024/03/23 00:16:21;;;;;;;16.50;2.58;;;;;;;8.33;100.00;100627.69;6236613;28;20133;-87
2024/03/23 00:19:25;;;;;;;15.23;4.15;;;;;;;8.33;100.00;100625.91;6242435;28;20046;-87
2024/03/23 00:22:30;;;;;;;15.65;2.47;;;;;;;8.29;100.00;100618.28;6232244;28;20176;-86
2024/03/23 00:25:34;;;;;;;10.50;2.30;;;;;;;8.29;100.00;100615.66;6241981;28;20422;-87
2024/03/23 00:28:39;;;;;;;22.90;3.20;;;;;;;8.27;100.00;100615.72;6234532;28;20346;-86
2024/03/23 00:31:44;;;;;;;14.32;2.38;;;;;;;8.26;100.00;100611.38;6238105;28;20061;-86
2024/03/23 00:34:48;;;;;;;12.98;2.33;;;;;;;8.30;100.00;100599.84;6239168;28;20323;-85
2024/03/23 00:37:53;;;;;;;19.77;3.17;;;;;;;8.24;100.00;100597.53;6246569;28;20049;-87
2024/03/23 00:40:59;;;;;;;14.40;2.63;;;;;;;8.26;100.00;100593.06;6246573;28;20052;-86
2024/03/23 00:44:03;;;;;;;10.90;2.65;;;;;;;8.25;100.00;100595.75;6230751;28;20128;-86
2024/03/23 00:47:08;;;;;;;10.77;2.90;;;;;;;8.28;100.00;100580.78;6246482;28;20538;-84
2024/03/23 00:50:12;;;;;;;10.38;2.33;;;;;;;8.25;100.00;100586.13;6229925;28;20081;-87
2024/03/23 00:53:15;;;;;;;13.82;3.03;;;;;;;8.25;100.00;100572.19;6243298;28;20264;-86
2024/03/23 00:56:16;;;;;;;15.80;2.80;;;;;;;8.24;100.00;100573.97;6240296;28;20057;-84
2024/03/23 00:59:17;;;;;;;15.45;2.47;;;;;;;8.20;100.00;100564.56;6235213;28;20049;-84
2024/03/23 01:02:18;;;;;;;14.10;2.50;;;;;;;8.01;100.00;100563.72;6239721;28;20050;-87
2024/03/23 01:05:19;;;;;;;16.95;2.67;;;;;;;8.15;100.00;100571.78;6229908;28;20053;-85
2024/03/23 01:08:22;;;;;;;12.00;2.65;;;;;;;8.12;100.00;100562.28;6237674;28;20446;-85
2024/03/23 01:11:23;;;;;;;28.38;4.43;;;;;;;8.16;100.00;100556.94;6235474;28;20052;-85
2024/03/23 01:14:23;;;;;;;22.13;2.90;;;;;;;8.14;100.00;100555.22;6238922;28;20447;-85
2024/03/23 01:17:25;;;;;;;10.98;2.90;;;;;;;8.13;100.00;100557.94;6237314;28;20053;-85
2024/03/23 01:20:25;;;;;;;20.73;2.70;;;;;;;8.13;100.00;100561.41;6237097;28;20049;-85
2024/03/23 01:23:28;;;;;;;8.93;2.97;;;;;;;8.17;100.00;100556.84;6252440;28;20045;-85
2024/03/23 01:26:29;;;;;;;19.67;2.65;;;;;;;8.23;100.00;100546.09;6237355;28;20068;-85
2024/03/23 01:29:30;;;;;;;7.25;2.60;;;;;;;8.20;100.00;100543.63;6229236;28;20053;-85
2024/03/23 01:32:32;;;;;;;27.67;3.63;;;;;;;8.12;100.00;100545.75;6228939;28;20054;-85
2024/03/23 01:35:32;;;;;;;13.05;2.55;;;;;;;8.16;100.00;100535.97;6236810;28;20056;-85
2024/03/23 01:38:36;;;;;;;14.80;3.17;;;;;;;8.05;100.00;100533.88;6244865;28;20050;-85
2024/03/23 01:41:37;;;;;;;15.48;3.15;;;;;;;8.06;100.00;100525.94;6235602;28;20046;-85
2024/03/23 01:44:38;;;;;;;12.52;2.97;;;;;;;8.04;100.00;100516.44;6236587;28;20048;-85
2024/03/23 01:47:39;;;;;;;16.65;4.45;;;;;;;8.10;100.00;100521.41;6245123;28;20152;-85
2024/03/23 01:50:40;;;;;;;13.85;3.47;;;;;;;8.10;100.00;100519.66;6252179;28;20057;-85
2024/03/23 01:53:42;;;;;;;14.18;3.15;;;;;;;8.11;100.00;100510.03;6244344;28;20057;-85
2024/03/23 01:56:43;;;;;;;12.38;3.25;;;;;;;8.12;100.00;100504.72;6244574;28;20060;-85
2024/03/23 01:59:44;;;;;;;15.52;3.72;;;;;;;8.10;100.00;100498.72;6236884;28;20041;-85
2024/03/23 02:02:46;;;;;;;8.63;3.15;;;;;;;7.98;100.00;100506.28;6243544;28;20054;-85
2024/03/23 02:05:46;;;;;;;13.57;4.13;;;;;;;8.02;100.00;100506.06;6229223;28;20060;-84
2024/03/23 02:08:49;;;;;;;13.55;3.28;;;;;;;7.98;100.00;100490.59;6251663;28;20137;-85
2024/03/23 02:11:49;;;;;;;10.45;2.92;;;;;;;8.00;100.00;100484.38;6243890;28;20056;-84
2024/03/23 02:14:51;;;;;;;17.60;3.53;;;;;;;7.97;100.00;100486.28;6237657;28;20363;-85
2024/03/23 02:17:51;;;;;;;17.30;3.55;;;;;;;7.94;100.00;100478.56;6242247;28;20053;-86
2024/03/23 02:20:52;;;;;;;18.25;3.95;;;;;;;7.99;100.00;100468.72;6229429;28;20324;-84
2024/03/23 02:23:54;;;;;;;21.70;4.03;;;;;;;8.00;100.00;100468.66;6252037;28;20052;-85
2024/03/23 02:26:55;;;;;;;15.88;3.50;;;;;;;8.03;100.00;100467.66;6241493;28;20046;-85
2024/03/23 02:29:57;;;;;;;17.65;3.38;;;;;;;8.00;100.00;100470.44;6235161;28;20049;-85
2024/03/23 02:32:57;;;;;;;17.30;3.10;;;;;;;7.84;100.00;100468.53;6230202;28;20461;-84
2024/03/23 02:35:59;;;;;;;21.05;3.45;;;;;;;7.93;100.00;100461.16;6235228;28;20050;-85
2024/03/23 02:39:01;;;;;;;13.35;3.78;;;;;;;7.97;100.00;100458.34;6252093;28;20049;-85
2024/03/23 02:42:02;;;;;;;18.35;3.60;;;;;;;7.89;100.00;100461.31;6243169;28;20056;-84
2024/03/23 02:45:04;;;;;;;15.88;3.05;;;;;;;7.91;100.00;100458.63;6251350;28;20053;-85
2024/03/23 02:48:06;;;;;;;18.83;3.60;;;;;;;7.82;100.00;100446.84;6248085;28;20331;-84
2024/03/23 02:51:07;;;;;;;18.17;3.67;;;;;;;7.81;100.00;100444.28;6230449;28;20053;-84
2024/03/23 02:54:09;;;;;;;16.45;3.97;;;;;;;7.86;100.00;100445.78;6251757;28;20057;-84
2024/03/23 02:57:10;;;;;;;15.10;3.05;;;;;;;7.84;100.00;100444.97;6235363;28;20049;-84
2024/03/23 03:00:12;;;;;;;13.48;3.22;;;;;;;7.87;100.00;100438.78;6243287;28;20461;-85
2024/03/23 03:03:14;;;;;;;25.90;4.00;;;;;;;7.85;100.00;100438.81;6252075;28;20045;-84
2024/03/23 03:06:23;;;;;;;12.00;3.30;;;;;;;7.82;100.00;100443.38;6247607;28;20050;-85
2024/03/23 03:09:25;;;;;;;;;;;;;;;7.85;100.00;100436.19;6230025;28;20125;-85
2024/03/23 03:12:26;;;;;;;12.05;3.45;;;;;;;7.86;100.00;100437.94;6241913;28;19928;-84
2024/03/23 03:15:28;;;;;;;10.32;2.85;;;;;;;7.81;100.00;100439.03;6244874;28;20056;-85
2024/03/23 03:18:28;;;;;;;15.20;3.28;;;;;;;7.88;100.00;100430.00;6239437;28;20042;-83
2024/03/23 03:21:30;;;;;;;12.70;3.28;;;;;;;7.82;100.00;100427.69;6254505;28;20346;-84
2024/03/23 03:24:32;;;;;;;16.48;4.40;;;;;;;7.85;100.00;100419.66;6228129;28;20362;-84
2024/03/23 03:27:34;;;;;;;18.38;3.42;;;;;;;7.87;100.00;100420.47;6241953;28;20119;-83
2024/03/23 03:30:35;;;;;;;15.15;3.28;;;;;;;7.85;100.00;100420.50;6218988;28;20350;-83
2024/03/23 03:33:35;;;;;;;18.63;3.60;;;;;;;7.85;100.00;100428.34;6238839;28;20068;-83
2024/03/23 03:36:37;;;;;;;16.48;2.70;;;;;;;7.76;100.00;100426.16;6226018;28;20054;-83
2024/03/23 03:39:38;;;;;;;12.90;3.13;;;;;;;7.79;100.00;100422.56;6241392;28;20050;-83
2024/03/23 03:42:40;;;;;;;17.40;3.22;;;;;;;7.77;100.00;100421.81;6226790;28;20088;-83
2024/03/23 03:45:40;;;;;;;17.17;2.45;;;;;;;7.60;100.00;100412.13;6221817;28;20057;-83
2024/03/23 03:48:41;;;;;;;10.40;2.58;;;;;;;7.67;100.00;100410.91;6234341;28;20053;-82
2024/03/23 03:51:42;;;;;;;14.30;3.53;;;;;;;7.73;100.00;100408.03;6236063;28;20056;-82
2024/03/23 03:54:45;;;;;;;24.40;5.05;;;;;;;7.59;100.00;100402.59;6237430;28;20053;-83
2024/03/23 03:57:45;;;;;;;22.42;2.90;;;;;;;7.77;100.00;100401.72;6242175;28;20433;-85
2024/03/23 04:00:46;;;;;;;12.85;2.55;;;;;;;7.77;100.00;100393.03;6233485;28;20053;-83
2024/03/23 04:03:47;;;;;;;12.60;3.22;;;;;;;7.74;100.00;100391.41;6234885;28;20049;-83
2024/03/23 04:06:49;;;;;;;16.08;3.00;;;;;;;7.70;100.00;100386.41;6253348;28;20042;-83
2024/03/23 04:09:50;;;;;;;8.45;2.40;;;;;;;7.69;100.00;100380.31;6238621;28;20049;-83
2024/03/23 04:12:52;;;;;;;17.98;2.95;;;;;;;7.71;100.00;100386.31;6238709;28;20060;-83
2024/03/23 04:15:55;;;;;;;18.15;3.53;;;;;;;7.68;100.00;100373.41;6254971;28;20049;-83
2024/03/23 04:18:55;;;;;;;13.93;2.60;;;;;;;7.63;100.00;100376.22;6238549;28;20045;-83
2024/03/23 04:21:56;;;;;;;11.82;2.60;;;;;;;7.54;100.00;100384.50;6254484;28;20042;-83
2024/03/23 04:24:58;;;;;;;11.43;2.85;;;;;;;7.60;100.00;100383.38;6254656;28;20430;-83
2024/03/23 04:28:00;;;;;;;18.20;3.65;;;;;;;7.60;100.00;100385.97;6246616;28;20077;-83
2024/03/23 04:31:03;;;;;;;20.67;3.05;;;;;;;7.56;100.00;100390.50;6237659;28;20054;-83
2024/03/23 04:34:05;;;;;;;14.63;3.10;;;;;;;7.55;100.00;100390.59;6232434;28;20068;-83
2024/03/23 04:37:06;;;;;;;6.55;2.20;;;;;;;7.57;100.00;100404.41;6229692;28;20361;-83
2024/03/23 04:40:11;;;;;;;15.73;3.05;;;;;;;7.55;100.00;100404.50;6249308;28;20354;-83
2024/03/23 04:43:12;;;;;;;15.20;3.28;;;;;;;7.52;100.00;100404.63;6246441;28;20127;-83
2024/03/23 04:46:13;;;;;;;13.98;2.63;;;;;;;7.49;100.00;100399.53;6254193;28;20369;-83
2024/03/23 04:49:15;;;;;;;20.30;3.20;;;;;;;7.46;100.00;100399.69;6246230;28;20373;-82
2024/03/23 04:52:17;;;;;;;16.35;3.13;;;;;;;7.43;100.00;100392.00;6238729;28;20049;-83
2024/03/23 04:55:19;;;;;;;14.20;3.10;;;;;;;7.45;100.00;100387.56;6230646;28;20053;-83
2024/03/23 04:58:20;;;;;;;12.15;2.83;;;;;;;7.44;100.00;100385.00;6237639;28;20457;-83
2024/03/23 05:01:21;;;;;;;13.23;2.70;;;;;;;7.46;100.00;100376.16;6250642;28;20081;-84
2024/03/23 05:04:22;;;;;;;9.27;2.50;;;;;;;7.45;100.00;100357.91;6231818;28;20132;-83
2024/03/23 05:07:24;;;;;;;26.20;4.35;;;;;;;7.35;100.00;100347.88;6238085;28;20057;-83
2024/03/23 05:10:25;;;;;;;16.60;3.55;;;;;;;7.36;100.00;100349.59;6253551;28;20041;-84
2024/03/23 05:13:27;;;;;;;13.48;3.70;;;;;;;7.31;100.00;100355.94;6253676;28;20037;-83
2024/03/23 05:16:28;;;;;;;16.77;3.80;;;;;;;7.32;100.00;100363.75;6252434;28;20041;-83
2024/03/23 05:19:29;;;;;;;20.90;3.60;;;;;;;7.35;100.00;100357.50;6252734;28;20041;-83
2024/03/23 05:22:30;;;;;;;16.05;3.78;;;;;;;7.27;100.00;100354.41;6240094;28;20338;-83
2024/03/23 05:25:32;;;;;;;20.08;4.53;;;;;;;7.18;100.00;100337.38;6243565;28;20049;-83
2024/03/23 05:28:33;;;;;;;13.52;3.53;;;;;;;7.24;100.00;100336.25;6238382;28;20049;-83
2024/03/23 05:31:35;;;;;;;22.67;4.10;;;;;;;7.27;100.00;100338.75;6251755;28;20429;-83
2024/03/23 05:34:35;;;;;;;18.38;4.38;;;;;;;7.15;100.00;100341.91;6245283;28;20060;-82
2024/03/23 05:37:37;;;;;;;15.05;5.72;;;;;;;7.19;100.00;100336.47;6252916;28;20045;-82
2024/03/23 05:40:40;;;;;;;17.25;3.58;;;;;;;7.18;100.00;100344.38;6252123;28;20366;-82
2024/03/23 05:43:41;;;;;;;17.50;4.35;;;;;;;7.18;100.00;100337.38;6248460;28;20045;-83
2024/03/23 05:46:41;;;;;;;21.35;3.70;;;;;;;7.16;100.00;100328.75;6236230;28;20438;-82
2024/03/23 05:49:43;;;;;;;17.80;3.50;;;;;;;7.17;100.00;100321.75;6236230;28;20053;-82
2024/03/23 05:52:43;;;;;;;19.45;4.07;;;;;;;7.17;100.00;100316.53;6252714;28;20052;-83
2024/03/23 05:55:47;;;;;;;16.42;4.85;;;;;;;7.19;100.00;100312.94;6252597;28;20045;-82
2024/03/23 05:58:48;;;;;;;14.45;3.78;;;;;;;7.11;100.00;100335.97;6252562;28;20072;-82
2024/03/23 06:01:49;;;;;;;16.92;4.07;;;;;;;7.13;100.00;100334.16;6251939;28;20068;-82
2024/03/23 06:04:51;;;;;;;24.27;4.70;;;;;;;7.17;100.00;100330.44;6252260;28;20090;-82
2024/03/23 06:07:52;;;;;;;36.08;5.88;;;;;;;7.20;100.00;100334.69;6252320;28;20052;-82
2024/03/23 06:10:55;;;;;;;20.58;3.60;;;;;;;7.19;100.00;100333.84;6252010;28;20042;-82
2024/03/23 06:13:55;;;;;;;21.83;3.95;;;;;;;7.18;100.00;100320.88;6252513;28;20053;-82
2024/03/23 06:16:57;;;;;;;25.83;5.57;;;;;;;7.17;100.00;100322.59;6252088;28;20393;-82
2024/03/23 06:19:57;;;;;;;15.98;3.42;;;;;;;7.18;100.00;100324.31;6251564;28;20049;-81
2024/03/23 06:22:58;;;;;;;33.70;3.90;;;;;;;7.18;100.00;100326.09;6252131;28;20044;-82
2024/03/23 06:26:00;;;;;;;31.30;3.70;;;;;;;7.15;100.00;100331.44;6251712;28;20052;-81
2024/03/23 06:29:01;;;;;;;11.98;3.80;;;;;;;7.18;100.00;100332.16;6251481;28;20045;-80
2024/03/23 06:32:03;;;;;;;20.42;4.35;;;;;;;7.15;100.00;100334.06;6251265;28;20456;-81
2024/03/23 06:35:09;;;;;;;16.50;3.42;;;;;;;7.20;100.00;100338.16;6251845;28;20132;-81
2024/03/23 06:38:10;;;;;;;23.98;4.13;;;;;;;7.24;100.00;100338.88;6236798;28;20046;-81
2024/03/23 06:41:12;;;;;;;14.18;3.65;;;;;;;7.21;100.00;100339.84;6238506;28;20045;-81
2024/03/23 06:44:13;;;;;;;15.60;4.13;;;;;;;7.20;100.00;100330.31;6251662;28;20081;-81
2024/03/23 06:47:14;;;;;;;10.38;3.28;;;;;;;7.23;100.00;100342.41;6251167;28;20050;-82
2024/03/23 06:50:15;;;;;;;20.67;3.63;;;;;;;7.22;100.00;100335.47;6250866;28;20045;-82
2024/03/23 06:53:16;;;;;;;20.52;3.42;;;;;;;7.22;100.00;100332.84;6235832;28;20046;-81
2024/03/23 06:56:18;;;;;;;36.47;5.93;;;;;;;7.19;100.00;100328.63;6230934;28;20441;-82
2024/03/23 06:59:20;;;;;;;29.45;4.22;;;;;;;7.28;100.00;100330.81;6251068;28;20050;-82
2024/03/23 07:02:20;;;;;;;18.27;4.03;;;;;;;7.27;100.00;100328.28;6250876;28;20044;-82
2024/03/23 07:05:21;;;;;;;21.08;3.58;;;;;;;7.22;100.00;100325.00;6232277;28;20057;-81
2024/03/23 07:08:22;;;;;;;17.58;3.95;;;;;;;7.19;100.00;100322.56;6238798;28;20434;-81
2024/03/23 07:11:25;;;;;;;17.67;3.42;;;;;;;7.18;100.00;100333.94;6234936;28;20049;-80
2024/03/23 07:14:26;;;;;;;21.30;4.95;;;;;;;7.11;100.00;100321.13;6250972;28;20052;-81
2024/03/23 07:17:28;;;;;;;19.73;4.18;;;;;;;7.15;100.00;100315.78;6234540;28;20052;-82
2024/03/23 07:20:30;;;;;;;23.20;4.50;;;;;;;7.14;100.00;100320.16;6250061;28;20045;-81
2024/03/23 07:23:30;;;;;;;23.33;4.57;;;;;;;7.12;100.00;100317.59;6250631;28;20072;-82
2024/03/23 07:26:33;;;;;;;22.58;4.47;;;;;;;7.07;100.00;100316.13;6250325;28;20045;-81
2024/03/23 07:29:34;;;;;;;18.52;4.10;;;;;;;7.13;100.00;100326.31;6250129;28;20052;-82
2024/03/23 07:32:35;;;;;;;18.80;4.70;;;;;;;7.12;100.00;100333.28;6250435;28;20465;-80
2024/03/23 07:35:37;;;;;;;23.08;4.35;;;;;;;7.21;100.00;100333.78;6239329;28;20050;-82
2024/03/23 07:38:37;;;;;;;21.02;4.95;;;;;;;7.27;100.00;100336.13;6233021;28;20438;-81
2024/03/23 07:41:40;;;;;;;24.38;4.85;;;;;;;7.32;100.00;100334.13;6249152;28;20042;-81
2024/03/23 07:44:41;;;;;;;33.65;6.93;;;;;;;7.49;100.00;100341.16;6250404;28;20048;-82
2024/03/23 07:47:41;;;;;;;17.80;6.80;;;;;;;7.49;100.00;100338.56;6250445;28;20053;-81
2024/03/23 07:50:43;;;;;;;29.40;8.20;;;;;;;7.51;100.00;100341.97;6242898;28;20053;-82
2024/03/23 07:53:44;;;;;;;27.20;8.98;;;;;;;7.55;100.00;100341.75;6230169;28;20048;-80
2024/03/23 07:56:47;;;;;;;20.13;7.22;;;;;;;7.48;100.00;100336.88;6230194;28;20054;-82
2024/03/23 07:59:47;;;;;;;19.65;5.50;;;;;;;7.38;100.00;100342.53;6224881;28;20050;-82
2024/03/23 08:02:52;;;;;;;28.38;6.25;;;;;;;7.48;100.00;100342.09;6228259;28;20038;-82
2024/03/23 08:05:53;;;;;;;12.80;4.63;;;;;;;7.55;100.00;100336.50;6226229;28;20042;-81
2024/03/23 08:08:59;;;;;;;20.13;5.22;;;;;;;7.67;100.00;100336.84;6250382;28;20041;-82
2024/03/23 08:12:02;;;;;;;20.65;4.60;;;;;;;7.82;100.00;100339.59;6249422;28;20355;-83
2024/03/23 08:15:03;;;;;;;18.52;4.65;;;;;;;7.92;100.00;100344.38;6249973;28;20132;-82
2024/03/23 08:18:05;;;;;;;8.98;3.25;;;;;;;8.04;100.00;100341.13;6249930;28;20123;-81
2024/03/23 08:21:06;;;;;;;22.95;3.58;;;;;;;8.12;100.00;100342.44;6247771;28;20041;-83
2024/03/23 08:24:08;;;;;;;17.85;3.35;;;;;;;8.18;100.00;100354.41;6233608;28;20053;-83
2024/03/23 08:27:10;;;;;;;17.58;3.92;;;;;;;8.28;100.00;100344.31;6244637;28;20049;-82
2024/03/23 08:30:12;;;;;;;17.00;3.75;;;;;;;8.42;100.00;100341.03;6249275;28;20080;-82
2024/03/23 08:33:13;;;;;;;22.08;3.72;;;;;;;8.44;100.00;100341.78;6249690;28;20041;-77
2024/03/23 08:36:14;;;;;;;15.63;3.58;;;;;;;8.57;100.00;100341.06;6249646;28;20053;-82
2024/03/23 08:39:15;;;;;;;25.70;4.13;;;;;;;8.53;100.00;100336.91;6239008;28;20053;-82
2024/03/23 08:42:18;;;;;;;26.20;3.45;;;;;;;8.46;100.00;100342.56;6240871;28;20445;-83
2024/03/23 08:45:18;;;;;;;22.55;3.95;;;;;;;8.33;100.00;100339.69;6248325;28;20049;-82
2024/03/23 08:48:21;;;;;;;11.23;3.08;;;;;;;8.42;100.00;100334.00;6223112;28;20435;-82
2024/03/23 08:51:22;;;;;;;15.77;3.10;;;;;;;8.25;100.00;100358.38;6225116;28;20139;-80
2024/03/23 08:54:23;;;;;;;16.65;3.13;;;;;;;8.33;100.00;100337.91;6237962;28;20046;-81
2024/03/23 08:57:25;;;;;;;22.27;2.92;;;;;;;8.36;100.00;100329.94;6234423;28;20053;-82
2024/03/23 09:00:26;;;;;;;12.55;3.03;;;;;;;8.47;100.00;100334.63;6242380;28;20354;-81
2024/03/23 09:03:27;;;;;;;17.58;3.15;;;;;;;8.53;100.00;100333.47;6253900;28;20049;-83
2024/03/23 09:06:28;;;;;;;15.82;2.70;;;;;;;8.58;100.00;100345.41;6241560;28;20041;-84
2024/03/23 09:09:29;;;;;;;13.32;2.95;;;;;;;8.66;100.00;100328.44;6234571;28;20052;-84
2024/03/23 09:12:32;;;;;;;20.05;3.33;;;;;;;8.73;100.00;100327.19;6245739;28;20048;-84
2024/03/23 09:15:34;;;;;;;10.45;2.33;;;;;;;8.64;100.00;100332.00;6250029;28;20049;-84
2024/03/23 09:18:37;;;;;;;14.45;2.80;;;;;;;8.48;100.00;100328.44;6251035;28;20041;-84
2024/03/23 09:21:38;;;;;;;20.20;2.50;;;;;;;8.51;100.00;100325.69;6215111;28;20363;-82
2024/03/23 09:24:39;;;;;;;5.70;2.33;;;;;;;8.63;100.00;100321.59;6225771;28;20057;-83
2024/03/23 09:27:41;;;;;;;15.00;2.83;;;;;;;8.72;100.00;100325.47;6219012;28;20049;-76
2024/03/23 09:30:43;;;;;;;13.93;2.47;;;;;;;8.71;100.00;100318.56;6210863;28;20459;-76
2024/03/23 09:33:43;;;;;;;8.60;2.38;;;;;;;8.78;100.00;100319.94;6220966;28;20045;-83
2024/03/23 09:36:45;;;;;;;8.70;2.60;;;;;;;8.74;100.00;100324.50;6229618;28;20491;-79
2024/03/23 09:39:45;;;;;;;10.32;2.30;;;;;;;8.65;100.00;100324.97;6220113;28;20046;-80
2024/03/23 09:42:52;;;;;;;16.23;2.63;;;;;;;8.76;100.00;100314.75;6233830;28;20049;-80
2024/03/23 09:45:54;;;;;;;12.85;2.13;;;;;;;8.84;100.00;100320.44;6210681;28;20050;-82
2024/03/23 09:48:55;;;;;;;18.63;2.40;;;;;;;8.95;100.00;100317.28;6206079;28;20181;-78
2024/03/23 09:51:57;;;;;;;15.27;2.05;;;;;;;9.07;100.00;100307.91;6216455;28;20061;-82
2024/03/23 09:54:57;;;;;;;11.32;2.63;;;;;;;9.24;100.00;100306.97;6236113;28;20049;-82
2024/03/23 09:58:00;;;;;;;11.57;2.50;;;;;;;9.34;100.00;100316.88;6252769;28;20081;-82
2024/03/23 10:01:03;;;;;;;6.97;1.88;;;;;;;8.98;100.00;100359.03;6251345;28;20500;-83
2024/03/23 10:04:03;;;;;;;12.60;1.30;;;;;;;7.35;100.00;100370.56;6251586;28;20053;-83
2024/03/23 10:07:12;;;;;;;2.75;1.15;;;;;;;5.83;100.00;100352.75;6252267;28;20129;-82
2024/03/23 10:10:13;;;;;;;5.93;1.33;;;;;;;5.41;100.00;100356.13;6252104;28;20122;-80
2024/03/23 10:13:26;;;;;;;11.20;1.10;;;;;;;5.36;100.00;100373.69;6252304;28;20393;-80
2024/03/23 10:16:27;;;;;;;3.25;1.30;;;;;;;5.61;100.00;100378.81;6252184;28;20052;-81
2024/03/23 10:19:32;;;;;;;5.72;1.70;;;;;;;5.80;100.00;100374.56;6252316;28;20049;-82
2024/03/23 10:22:37;;;;;;;5.43;1.50;;;;;;;5.77;100.00;100356.44;6252098;28;20041;-82
2024/03/23 10:25:38;;;;;;;4.07;1.25;;;;;;;5.81;100.00;100362.38;6243617;28;20133;-84
2024/03/23 10:28:53;;;;;;;14.32;1.70;;;;;;;6.05;100.00;100342.31;6245186;28;20054;-83
2024/03/23 10:32:08;;;;;;;5.97;1.50;;;;;;;6.28;100.00;100343.97;6244336;28;20049;-83
2024/03/23 10:35:16;;;;;;;8.50;1.27;;;;;;;6.49;100.00;100347.41;6252034;28;20064;-84
2024/03/23 10:38:17;;;;;;;7.40;1.80;;;;;;;6.58;100.00;100337.41;6251960;28;20056;-82
2024/03/23 10:41:18;;;;;;;6.50;1.98;;;;;;;6.58;100.00;100344.41;6251040;28;20056;-84
2024/03/23 10:44:23;;;;;;;6.63;2.38;;;;;;;6.53;100.00;100339.38;6251775;28;20073;-85
2024/03/23 10:47:24;;;;;;;8.23;1.92;;;;;;;6.70;100.00;100330.81;6251876;28;20053;-85
2024/03/23 10:50:25;;;;;;;13.65;2.95;;;;;;;7.02;100.00;100334.63;6250987;28;20044;-85
2024/03/23 10:53:28;;;;;;;3.10;2.20;;;;;;;7.32;100.00;100334.97;6251761;28;20041;-89
2024/03/23 10:56:34;;;;;;;5.13;2.80;;;;;;;7.62;100.00;100334.44;6234977;28;20045;-84
2024/03/23 10:59:37;;;;;;;22.23;3.35;;;;;;;7.52;100.00;100393.31;6242258;28;20049;-85
2024/03/23 11:02:38;;;;;;;2.83;0.82;;;;;;;5.91;100.00;100388.94;6243628;28;20128;-79
2024/03/23 11:05:39;;;;;;;3.20;0.50;;;;;;;5.31;100.00;100396.44;6251047;28;20041;-82
2024/03/23 11:08:42;;;;;;;3.70;0.80;;;;;;;5.18;100.00;100388.25;6251163;28;20045;-81
2024/03/23 11:11:43;;;;;;;0.85;0.65;;;;;;;5.14;100.00;100383.22;6243394;28;20494;-83
2024/03/23 11:14:45;;;;;;;0.73;0.68;;;;;;;5.13;100.00;100377.13;6242171;28;20053;-83
2024/03/23 11:18:07;;;;;;;2.08;0.60;;;;;;;5.10;100.00;100379.88;6243334;28;20038;-84
2024/03/23 11:21:08;;;;;;;5.40;0.93;;;;;;;5.29;100.00;100367.84;6250975;28;20057;-84
2024/03/23 11:24:19;;;;;;;2.85;0.75;;;;;;;5.36;100.00;100360.66;6244781;28;20437;-84
2024/03/23 11:27:20;;;;;;;1.65;0.63;;;;;;;5.40;100.00;100359.63;6243326;28;20475;-85
2024/03/23 11:30:24;;;;;;;1.20;0.70;;;;;;;5.58;100.00;100353.69;6249821;28;20046;-84
2024/03/23 11:33:24;;;;;;;0.63;0.50;;;;;;;5.74;100.00;100347.91;6254313;28;20049;-84
2024/03/23 11:36:26;;;;;;;0.68;0.45;;;;;;;5.83;100.00;100345.75;6240279;28;20331;-85
2024/03/23 11:39:26;;;;;;;0.57;0.43;;;;;;;6.04;100.00;100340.59;6251922;28;20049;-83
2024/03/23 11:42:28;;;;;;;1.40;0.70;;;;;;;6.32;100.00;100322.91;6247900;28;20431;-85
2024/03/23 11:45:35;;;;;;;0.30;0.30;;;;;;;6.55;100.00;100308.84;6242221;28;20060;-83
2024/03/23 11:48:36;;;;;;;0.55;0.55;;;;;;;6.77;100.00;100320.97;6248418;28;20385;-83
2024/03/23 11:51:37;;;;;;;0.52;0.43;;;;;;;7.05;100.00;100316.19;6282068;22;20444;-77
2024/03/23 11:54:38;;;;;;;2.20;0.50;;;;;;;7.26;100.00;100309.09;6274970;28;20047;-77
2024/03/23 11:57:38;;;;;;;8.82;0.68;;;;;;;7.63;100.00;100305.63;6263836;28;20366;-75
2024/03/23 12:00:42;;;;;;;4.07;0.52;;;;;;;7.78;100.00;100316.25;6256513;28;20046;-76
2024/03/23 12:03:44;;;;;;;3.63;0.80;;;;;;;7.63;100.00;100310.84;6264375;28;20037;-75
2024/03/23 12:06:45;;;;;;;3.08;1.40;;;;;;;7.97;100.00;100314.44;6257502;28;20525;-76
2024/03/23 12:09:46;;;;;;;10.13;1.02;;;;;;;8.41;100.00;100321.84;6262956;28;20437;-76
2024/03/23 12:13:00;;;;;;;2.25;0.60;;;;;;;8.76;100.00;100317.38;6254967;28;20048;-74
2024/03/23 12:16:12;;;;;;;4.43;0.88;;;;;;;9.10;100.00;100302.50;6257797;28;20049;-75
2024/03/23 12:19:12;;;;;;;2.67;0.98;;;;;;;9.61;100.00;100304.00;6260802;28;20136;-74
2024/03/23 12:22:14;;;;;;;2.65;1.10;;;;;;;9.55;100.00;100299.09;6265551;28;20045;-76
2024/03/23 12:25:14;;;;;;;5.97;0.90;;;;;;;9.31;100.00;100293.47;6264316;28;20203;-75
2024/03/23 12:28:16;;;;;;;2.33;1.20;;;;;;;9.29;100.00;100307.56;6276948;28;20056;-77
2024/03/23 12:31:18;;;;;;;2.85;1.05;;;;;;;9.34;100.00;100293.28;6277233;28;20045;-75
2024/03/23 12:34:20;;;;;;;3.78;0.95;;;;;;;9.52;100.00;100282.69;6278183;28;20041;-76
2024/03/23 12:37:21;;;;;;;4.38;1.10;;;;;;;9.62;100.00;100282.06;6269846;28;20357;-75
2024/03/23 12:40:21;;;;;;;1.63;0.77;;;;;;;9.31;100.00;100285.59;6266804;28;20439;-76
2024/03/23 12:43:23;;;;;;;2.88;1.33;;;;;;;9.28;100.00;100284.91;6258661;28;20049;-75
2024/03/23 12:46:24;;;;;;;4.43;0.90;;;;;;;9.55;100.00;100280.75;6260151;28;20053;-74
2024/03/23 12:49:26;;;;;;;3.70;1.00;;;;;;;10.07;100.00;100287.38;6263677;28;20052;-75
2024/03/23 12:52:28;;;;;;;3.33;0.90;;;;;;;10.09;100.00;100283.75;6266645;28;20063;-80
2024/03/23 12:55:29;;;;;;;3.00;0.98;;;;;;;10.37;100.00;100272.47;6259099;28;20392;-71
2024/03/23 12:58:30;;;;;;;2.20;0.90;;;;;;;10.30;100.00;100272.94;6275923;28;20052;-69
2024/03/23 13:01:33;;;;;;;4.35;0.90;;;;;;;10.68;100.00;100273.25;6264809;28;20041;-74
2024/03/23 13:04:33;;;;;;;2.85;1.15;;;;;;;10.54;100.00;100275.88;6266548;28;20046;-70
2024/03/23 13:07:35;;;;;;;2.90;0.95;;;;;;;10.73;100.00;100272.97;6257184;28;20068;-73
2024/03/23 13:10:36;;;;;;;4.22;1.08;;;;;;;10.75;100.00;100250.06;6263460;28;20441;-74
2024/03/23 13:13:36;;;;;;;7.07;1.70;;;;;;;10.78;96.33;100261.22;6259819;28;20045;-75
2024/03/23 13:16:39;;;;;;;4.10;1.15;;;;;;;10.82;100.00;100256.63;6252750;28;20077;-75
2024/03/23 13:19:41;;;;;;;2.47;1.33;;;;;;;11.10;98.64;100250.47;6252648;28;20053;-74
2024/03/23 13:22:41;;;;;;;8.50;0.98;;;;;;;11.15;93.39;100251.88;6255147;28;20045;-74
2024/03/23 13:25:50;;;;;;;2.88;0.85;;;;;;;11.06;90.47;100259.50;6255282;28;20052;-73
2024/03/23 13:28:52;;;;;;;3.00;1.00;;;;;;;10.74;89.72;100243.94;6271482;28;20053;-73
2024/03/23 13:31:53;;;;;;;6.03;0.95;;;;;;;11.13;89.27;100245.88;6269924;28;20357;-75
2024/03/23 13:34:55;;;;;;;7.82;1.25;;;;;;;10.77;90.41;100235.88;6277904;28;20056;-74
2024/03/23 13:37:56;;;;;;;2.15;1.13;;;;;;;10.70;92.57;100245.09;6276912;28;20060;-74
2024/03/23 13:40:58;;;;;;;2.83;0.85;;;;;;;10.64;92.99;100248.09;6277156;28;20433;-75
2024/03/23 13:43:59;;;;;;;4.65;1.30;;;;;;;10.07;99.57;100248.84;6278005;28;20448;-75
2024/03/23 13:47:01;;;;;;;3.75;1.30;;;;;;;9.74;100.00;100269.19;6277574;28;20072;-74
2024/03/23 13:50:02;;;;;;;6.53;1.20;;;;;;;9.28;100.00;100270.03;6277152;28;20360;-75
2024/03/23 13:53:04;;;;;;;3.35;1.10;;;;;;;9.19;100.00;100281.03;6277515;28;20060;-76
2024/03/23 13:56:04;;;;;;;2.10;0.77;;;;;;;8.82;100.00;100279.56;6277754;28;20055;-77
2024/03/23 13:59:06;;;;;;;2.42;0.60;;;;;;;9.28;96.58;100279.66;6277774;28;20053;-75